sensor_id;sensor_type;location;lat;lon;timestamp;P1;durP1;ratioP1;P2;durP2;ratioP2
42700;SDS011;28316;49.504;8.526;2023-02-23T00:01:43;24.13;;;10.82;;
42700;SDS011;28316;49.504;8.526;2023-02-23T00:04:09;25.35;;;10.50;;
42700;SDS011;28316;49.504;8.526;2023-02-23T00:06:36;22.70;;;10.40;;
42700;SDS011;28316;49.504;8.526;2023-02-23T00:09:02;27.92;;;12.98;;
42700;SDS011;28316;49.504;8.526;2023-02-23T00:11:56;29.92;;;11.65;;
42700;SDS011;28316;49.504;8.526;2023-02-23T00:14:26;30.48;;;11.77;;
42700;SDS011;28316;49.504;8.526;2023-02-23T00:16:55;28.75;;;11.40;;
42700;SDS011;28316;49.504;8.526;2023-02-23T00:19:21;25.73;;;11.85;;
42700;SDS011;28316;49.504;8.526;2023-02-23T00:21:48;21.75;;;11.05;;
42700;SDS011;28316;49.504;8.526;2023-02-23T00:24:15;22.38;;;11.00;;
42700;SDS011;28316;49.504;8.526;2023-02-23T00:26:45;23.80;;;11.88;;
42700;SDS011;28316;49.504;8.526;2023-02-23T00:29:19;25.92;;;12.10;;
42700;SDS011;28316;49.504;8.526;2023-02-23T00:31:49;20.77;;;10.10;;
42700;SDS011;28316;49.504;8.526;2023-02-23T00:34:17;29.17;;;12.05;;
42700;SDS011;28316;49.504;8.526;2023-02-23T00:36:45;28.85;;;12.15;;
42700;SDS011;28316;49.504;8.526;2023-02-23T00:39:15;29.25;;;12.63;;
42700;SDS011;28316;49.504;8.526;2023-02-23T00:41:43;31.75;;;13.65;;
42700;SDS011;28316;49.504;8.526;2023-02-23T00:44:10;26.83;;;11.73;;
42700;SDS011;28316;49.504;8.526;2023-02-23T00:46:39;38.65;;;12.48;;
42700;SDS011;28316;49.504;8.526;2023-02-23T00:49:07;29.27;;;11.93;;
42700;SDS011;28316;49.504;8.526;2023-02-23T00:51:35;25.15;;;11.77;;
42700;SDS011;28316;49.504;8.526;2023-02-23T00:54:01;27.40;;;12.70;;
42700;SDS011;28316;49.504;8.526;2023-02-23T00:56:28;31.45;;;13.18;;
42700;SDS011;28316;49.504;8.526;2023-02-23T00:58:54;28.35;;;11.85;;
42700;SDS011;28316;49.504;8.526;2023-02-23T01:01:23;27.60;;;11.48;;
42700;SDS011;28316;49.504;8.526;2023-02-23T01:03:50;31.10;;;11.43;;
42700;SDS011;28316;49.504;8.526;2023-02-23T01:06:19;26.35;;;11.80;;
42700;SDS011;28316;49.504;8.526;2023-02-23T01:08:45;25.30;;;11.68;;
42700;SDS011;28316;49.504;8.526;2023-02-23T01:11:15;28.75;;;10.77;;
42700;SDS011;28316;49.504;8.526;2023-02-23T01:13:46;24.98;;;12.25;;
42700;SDS011;28316;49.504;8.526;2023-02-23T01:16:16;28.25;;;12.15;;
42700;SDS011;28316;49.504;8.526;2023-02-23T01:18:44;22.52;;;11.10;;
42700;SDS011;28316;49.504;8.526;2023-02-23T01:21:17;33.55;;;13.38;;
42700;SDS011;28316;49.504;8.526;2023-02-23T01:23:47;38.33;;;12.43;;
42700;SDS011;28316;49.504;8.526;2023-02-23T01:26:21;30.40;;;12.45;;
42700;SDS011;28316;49.504;8.526;2023-02-23T01:28:51;33.28;;;13.48;;
42700;SDS011;28316;49.504;8.526;2023-02-23T01:31:27;29.75;;;12.13;;
42700;SDS011;28316;49.504;8.526;2023-02-23T01:33:58;32.13;;;12.43;;
42700;SDS011;28316;49.504;8.526;2023-02-23T01:36:25;27.00;;;10.60;;
42700;SDS011;28316;49.504;8.526;2023-02-23T01:38:55;25.52;;;11.23;;
42700;SDS011;28316;49.504;8.526;2023-02-23T01:41:24;28.90;;;13.88;;
42700;SDS011;28316;49.504;8.526;2023-02-23T01:46:39;25.77;;;11.32;;
42700;SDS011;28316;49.504;8.526;2023-02-23T01:49:08;26.90;;;10.40;;
42700;SDS011;28316;49.504;8.526;2023-02-23T01:51:48;35.40;;;13.75;;
42700;SDS011;28316;49.504;8.526;2023-02-23T01:54:24;29.75;;;13.88;;
42700;SDS011;28316;49.504;8.526;2023-02-23T01:57:03;30.33;;;11.68;;
42700;SDS011;28316;49.504;8.526;2023-02-23T01:59:38;31.45;;;12.40;;
42700;SDS011;28316;49.504;8.526;2023-02-23T02:02:08;25.80;;;11.10;;
42700;SDS011;28316;49.504;8.526;2023-02-23T02:04:36;27.65;;;11.68;;
42700;SDS011;28316;49.504;8.526;2023-02-23T02:07:14;30.33;;;12.02;;
42700;SDS011;28316;49.504;8.526;2023-02-23T02:09:47;25.05;;;11.50;;
42700;SDS011;28316;49.504;8.526;2023-02-23T02:12:35;29.90;;;11.50;;
42700;SDS011;28316;49.504;8.526;2023-02-23T02:15:16;22.95;;;11.23;;
42700;SDS011;28316;49.504;8.526;2023-02-23T02:35:09;33.85;;;11.77;;
42700;SDS011;28316;49.504;8.526;2023-02-23T02:38:22;46.55;;;12.93;;
42700;SDS011;28316;49.504;8.526;2023-02-23T02:41:04;22.77;;;10.98;;
42700;SDS011;28316;49.504;8.526;2023-02-23T02:43:53;31.50;;;12.70;;
42700;SDS011;28316;49.504;8.526;2023-02-23T02:46:52;30.00;;;11.13;;
42700;SDS011;28316;49.504;8.526;2023-02-23T02:49:26;30.65;;;11.63;;
42700;SDS011;28316;49.504;8.526;2023-02-23T02:52:02;33.20;;;12.88;;
42700;SDS011;28316;49.504;8.526;2023-02-23T02:54:41;28.00;;;11.35;;
42700;SDS011;28316;49.504;8.526;2023-02-23T02:57:17;29.55;;;14.60;;
42700;SDS011;28316;49.504;8.526;2023-02-23T02:59:48;33.20;;;12.02;;
42700;SDS011;28316;49.504;8.526;2023-02-23T03:02:34;25.48;;;11.50;;
42700;SDS011;28316;49.504;8.526;2023-02-23T03:05:28;27.67;;;11.95;;
42700;SDS011;28316;49.504;8.526;2023-02-23T03:08:50;24.40;;;11.02;;
42700;SDS011;28316;49.504;8.526;2023-02-23T03:23:17;23.52;;;10.68;;
42700;SDS011;28316;49.504;8.526;2023-02-23T03:26:29;33.88;;;13.38;;
42700;SDS011;28316;49.504;8.526;2023-02-23T03:33:04;27.52;;;11.30;;
42700;SDS011;28316;49.504;8.526;2023-02-23T03:36:27;28.55;;;11.90;;
42700;SDS011;28316;49.504;8.526;2023-02-23T03:42:46;33.33;;;13.40;;
42700;SDS011;28316;49.504;8.526;2023-02-23T03:45:35;24.80;;;11.27;;
42700;SDS011;28316;49.504;8.526;2023-02-23T03:48:20;24.40;;;11.60;;
42700;SDS011;28316;49.504;8.526;2023-02-23T03:51:06;34.60;;;12.32;;
42700;SDS011;28316;49.504;8.526;2023-02-23T03:54:08;29.15;;;12.95;;
42700;SDS011;28316;49.504;8.526;2023-02-23T03:57:06;30.63;;;11.75;;
42700;SDS011;28316;49.504;8.526;2023-02-23T03:59:58;30.77;;;11.85;;
42700;SDS011;28316;49.504;8.526;2023-02-23T04:02:46;27.00;;;12.98;;
42700;SDS011;28316;49.504;8.526;2023-02-23T04:05:36;30.17;;;12.23;;
42700;SDS011;28316;49.504;8.526;2023-02-23T04:08:24;32.05;;;13.25;;
42700;SDS011;28316;49.504;8.526;2023-02-23T04:11:26;32.53;;;13.80;;
42700;SDS011;28316;49.504;8.526;2023-02-23T04:14:23;38.17;;;12.85;;
42700;SDS011;28316;49.504;8.526;2023-02-23T04:16:57;31.27;;;10.85;;
42700;SDS011;28316;49.504;8.526;2023-02-23T04:19:27;24.92;;;10.57;;
42700;SDS011;28316;49.504;8.526;2023-02-23T04:21:53;41.20;;;12.25;;
42700;SDS011;28316;49.504;8.526;2023-02-23T04:24:18;24.90;;;12.13;;
42700;SDS011;28316;49.504;8.526;2023-02-23T04:26:44;29.70;;;13.55;;
42700;SDS011;28316;49.504;8.526;2023-02-23T04:29:10;42.28;;;14.00;;
42700;SDS011;28316;49.504;8.526;2023-02-23T04:31:36;39.13;;;13.30;;
42700;SDS011;28316;49.504;8.526;2023-02-23T04:34:02;33.80;;;13.55;;
42700;SDS011;28316;49.504;8.526;2023-02-23T04:36:29;37.30;;;14.00;;
42700;SDS011;28316;49.504;8.526;2023-02-23T04:38:55;27.58;;;11.90;;
42700;SDS011;28316;49.504;8.526;2023-02-23T04:41:21;32.67;;;12.43;;
42700;SDS011;28316;49.504;8.526;2023-02-23T04:43:46;25.17;;;12.82;;
42700;SDS011;28316;49.504;8.526;2023-02-23T04:46:12;34.28;;;12.55;;
42700;SDS011;28316;49.504;8.526;2023-02-23T04:48:38;29.48;;;12.65;;
42700;SDS011;28316;49.504;8.526;2023-02-23T04:51:04;44.88;;;13.95;;
42700;SDS011;28316;49.504;8.526;2023-02-23T04:53:30;38.75;;;12.43;;
42700;SDS011;28316;49.504;8.526;2023-02-23T04:55:56;34.58;;;12.10;;
42700;SDS011;28316;49.504;8.526;2023-02-23T04:58:21;34.33;;;12.45;;
42700;SDS011;28316;49.504;8.526;2023-02-23T05:00:47;36.83;;;13.32;;
42700;SDS011;28316;49.504;8.526;2023-02-23T05:03:13;33.10;;;12.23;;
42700;SDS011;28316;49.504;8.526;2023-02-23T05:05:41;32.42;;;12.13;;
42700;SDS011;28316;49.504;8.526;2023-02-23T05:08:07;38.45;;;12.57;;
42700;SDS011;28316;49.504;8.526;2023-02-23T05:10:34;28.80;;;12.98;;
42700;SDS011;28316;49.504;8.526;2023-02-23T05:12:59;27.50;;;13.05;;
42700;SDS011;28316;49.504;8.526;2023-02-23T05:15:26;42.63;;;13.95;;
42700;SDS011;28316;49.504;8.526;2023-02-23T05:17:52;36.00;;;13.18;;
42700;SDS011;28316;49.504;8.526;2023-02-23T05:20:20;32.47;;;13.55;;
42700;SDS011;28316;49.504;8.526;2023-02-23T05:22:46;31.58;;;12.73;;
42700;SDS011;28316;49.504;8.526;2023-02-23T05:25:12;35.80;;;15.20;;
42700;SDS011;28316;49.504;8.526;2023-02-23T05:27:38;26.13;;;11.35;;
42700;SDS011;28316;49.504;8.526;2023-02-23T05:30:05;32.85;;;12.68;;
42700;SDS011;28316;49.504;8.526;2023-02-23T05:32:32;34.53;;;12.38;;
42700;SDS011;28316;49.504;8.526;2023-02-23T05:34:58;28.33;;;11.57;;
42700;SDS011;28316;49.504;8.526;2023-02-23T05:37:25;24.23;;;12.35;;
42700;SDS011;28316;49.504;8.526;2023-02-23T05:39:50;45.60;;;15.10;;
42700;SDS011;28316;49.504;8.526;2023-02-23T05:42:16;44.10;;;14.15;;
42700;SDS011;28316;49.504;8.526;2023-02-23T05:44:42;27.00;;;11.57;;
42700;SDS011;28316;49.504;8.526;2023-02-23T05:47:08;31.33;;;13.40;;
42700;SDS011;28316;49.504;8.526;2023-02-23T05:49:35;35.25;;;14.07;;
42700;SDS011;28316;49.504;8.526;2023-02-23T05:52:01;27.45;;;13.02;;
42700;SDS011;28316;49.504;8.526;2023-02-23T05:54:27;30.92;;;12.38;;
42700;SDS011;28316;49.504;8.526;2023-02-23T05:56:52;27.60;;;12.48;;
42700;SDS011;28316;49.504;8.526;2023-02-23T05:59:18;36.53;;;12.43;;
42700;SDS011;28316;49.504;8.526;2023-02-23T06:01:44;29.55;;;12.32;;
42700;SDS011;28316;49.504;8.526;2023-02-23T06:04:10;31.90;;;11.95;;
42700;SDS011;28316;49.504;8.526;2023-02-23T06:06:36;28.83;;;13.35;;
42700;SDS011;28316;49.504;8.526;2023-02-23T06:09:02;31.50;;;12.77;;
42700;SDS011;28316;49.504;8.526;2023-02-23T06:11:28;27.70;;;12.65;;
42700;SDS011;28316;49.504;8.526;2023-02-23T06:13:56;33.55;;;12.80;;
42700;SDS011;28316;49.504;8.526;2023-02-23T06:16:23;30.75;;;12.25;;
42700;SDS011;28316;49.504;8.526;2023-02-23T06:18:50;29.70;;;12.77;;
42700;SDS011;28316;49.504;8.526;2023-02-23T06:21:16;25.98;;;12.93;;
42700;SDS011;28316;49.504;8.526;2023-02-23T06:23:42;23.60;;;10.95;;
42700;SDS011;28316;49.504;8.526;2023-02-23T06:26:08;30.45;;;12.35;;
42700;SDS011;28316;49.504;8.526;2023-02-23T06:28:34;30.77;;;12.32;;
42700;SDS011;28316;49.504;8.526;2023-02-23T06:31:00;30.40;;;12.98;;
42700;SDS011;28316;49.504;8.526;2023-02-23T06:33:26;33.47;;;13.15;;
42700;SDS011;28316;49.504;8.526;2023-02-23T06:35:52;28.45;;;12.55;;
42700;SDS011;28316;49.504;8.526;2023-02-23T06:38:18;27.42;;;13.60;;
42700;SDS011;28316;49.504;8.526;2023-02-23T06:40:45;27.15;;;13.57;;
42700;SDS011;28316;49.504;8.526;2023-02-23T06:43:11;31.38;;;11.95;;
42700;SDS011;28316;49.504;8.526;2023-02-23T06:45:37;32.72;;;10.93;;
42700;SDS011;28316;49.504;8.526;2023-02-23T06:48:03;31.00;;;12.95;;
42700;SDS011;28316;49.504;8.526;2023-02-23T06:50:29;27.05;;;12.05;;
42700;SDS011;28316;49.504;8.526;2023-02-23T06:52:55;29.50;;;12.38;;
42700;SDS011;28316;49.504;8.526;2023-02-23T06:55:21;50.20;;;15.70;;
42700;SDS011;28316;49.504;8.526;2023-02-23T06:57:48;37.08;;;11.90;;
42700;SDS011;28316;49.504;8.526;2023-02-23T07:00:15;36.42;;;13.40;;
42700;SDS011;28316;49.504;8.526;2023-02-23T07:02:42;26.75;;;11.23;;
42700;SDS011;28316;49.504;8.526;2023-02-23T07:05:08;28.02;;;12.48;;
42700;SDS011;28316;49.504;8.526;2023-02-23T07:07:35;31.65;;;12.90;;
42700;SDS011;28316;49.504;8.526;2023-02-23T07:10:01;40.05;;;14.80;;
42700;SDS011;28316;49.504;8.526;2023-02-23T07:12:29;41.63;;;14.73;;
42700;SDS011;28316;49.504;8.526;2023-02-23T07:14:55;31.88;;;12.18;;
42700;SDS011;28316;49.504;8.526;2023-02-23T07:17:21;27.50;;;12.77;;
42700;SDS011;28316;49.504;8.526;2023-02-23T07:19:47;31.48;;;13.20;;
42700;SDS011;28316;49.504;8.526;2023-02-23T07:22:13;35.70;;;13.52;;
42700;SDS011;28316;49.504;8.526;2023-02-23T07:24:38;27.38;;;12.18;;
42700;SDS011;28316;49.504;8.526;2023-02-23T07:27:04;42.05;;;12.65;;
42700;SDS011;28316;49.504;8.526;2023-02-23T07:29:30;41.97;;;15.25;;
42700;SDS011;28316;49.504;8.526;2023-02-23T07:31:56;37.67;;;12.75;;
42700;SDS011;28316;49.504;8.526;2023-02-23T07:34:21;33.88;;;12.80;;
42700;SDS011;28316;49.504;8.526;2023-02-23T07:36:47;31.40;;;12.77;;
42700;SDS011;28316;49.504;8.526;2023-02-23T07:39:13;23.85;;;11.95;;
42700;SDS011;28316;49.504;8.526;2023-02-23T07:41:39;39.63;;;13.10;;
42700;SDS011;28316;49.504;8.526;2023-02-23T07:44:05;30.35;;;13.75;;
42700;SDS011;28316;49.504;8.526;2023-02-23T07:46:31;32.38;;;13.20;;
42700;SDS011;28316;49.504;8.526;2023-02-23T07:48:56;25.48;;;12.25;;
42700;SDS011;28316;49.504;8.526;2023-02-23T07:51:22;30.80;;;12.73;;
42700;SDS011;28316;49.504;8.526;2023-02-23T07:53:48;31.70;;;12.15;;
42700;SDS011;28316;49.504;8.526;2023-02-23T07:56:14;33.75;;;14.75;;
42700;SDS011;28316;49.504;8.526;2023-02-23T07:58:41;31.17;;;13.07;;
42700;SDS011;28316;49.504;8.526;2023-02-23T08:01:09;26.40;;;11.57;;
42700;SDS011;28316;49.504;8.526;2023-02-23T08:03:36;19.23;;;10.93;;
42700;SDS011;28316;49.504;8.526;2023-02-23T08:06:03;30.33;;;12.07;;
42700;SDS011;28316;49.504;8.526;2023-02-23T08:08:30;31.17;;;12.65;;
42700;SDS011;28316;49.504;8.526;2023-02-23T08:10:59;19.17;;;10.00;;
42700;SDS011;28316;49.504;8.526;2023-02-23T08:13:27;23.83;;;9.93;;
42700;SDS011;28316;49.504;8.526;2023-02-23T08:15:53;27.17;;;11.23;;
42700;SDS011;28316;49.504;8.526;2023-02-23T08:18:19;25.50;;;10.43;;
42700;SDS011;28316;49.504;8.526;2023-02-23T08:20:45;27.23;;;11.80;;
42700;SDS011;28316;49.504;8.526;2023-02-23T08:23:11;20.42;;;10.02;;
42700;SDS011;28316;49.504;8.526;2023-02-23T08:25:37;25.40;;;11.23;;
42700;SDS011;28316;49.504;8.526;2023-02-23T08:28:03;19.35;;;9.55;;
42700;SDS011;28316;49.504;8.526;2023-02-23T08:30:31;19.30;;;8.95;;
42700;SDS011;28316;49.504;8.526;2023-02-23T08:32:57;22.60;;;10.30;;
42700;SDS011;28316;49.504;8.526;2023-02-23T08:35:24;21.52;;;10.40;;
42700;SDS011;28316;49.504;8.526;2023-02-23T08:37:49;21.42;;;8.88;;
42700;SDS011;28316;49.504;8.526;2023-02-23T08:40:15;23.83;;;10.30;;
42700;SDS011;28316;49.504;8.526;2023-02-23T08:42:42;27.55;;;10.73;;
42700;SDS011;28316;49.504;8.526;2023-02-23T08:45:09;25.30;;;10.43;;
42700;SDS011;28316;49.504;8.526;2023-02-23T08:47:36;32.63;;;10.60;;
42700;SDS011;28316;49.504;8.526;2023-02-23T08:50:02;22.48;;;9.82;;
42700;SDS011;28316;49.504;8.526;2023-02-23T08:52:29;23.30;;;10.65;;
42700;SDS011;28316;49.504;8.526;2023-02-23T08:54:56;17.92;;;9.00;;
42700;SDS011;28316;49.504;8.526;2023-02-23T08:57:21;19.33;;;9.07;;
42700;SDS011;28316;49.504;8.526;2023-02-23T08:59:47;31.35;;;9.63;;
42700;SDS011;28316;49.504;8.526;2023-02-23T09:02:13;16.83;;;7.10;;
42700;SDS011;28316;49.504;8.526;2023-02-23T09:04:39;17.92;;;8.80;;
42700;SDS011;28316;49.504;8.526;2023-02-23T09:07:09;21.55;;;8.52;;
42700;SDS011;28316;49.504;8.526;2023-02-23T09:12:05;22.05;;;7.25;;
42700;SDS011;28316;49.504;8.526;2023-02-23T09:14:30;18.02;;;7.53;;
42700;SDS011;28316;49.504;8.526;2023-02-23T09:16:56;21.27;;;7.90;;
42700;SDS011;28316;49.504;8.526;2023-02-23T09:19:23;15.30;;;7.65;;
42700;SDS011;28316;49.504;8.526;2023-02-23T09:21:51;15.88;;;7.00;;
42700;SDS011;28316;49.504;8.526;2023-02-23T09:24:18;15.82;;;7.00;;
42700;SDS011;28316;49.504;8.526;2023-02-23T09:26:46;20.33;;;8.52;;
42700;SDS011;28316;49.504;8.526;2023-02-23T09:29:13;19.30;;;7.78;;
42700;SDS011;28316;49.504;8.526;2023-02-23T09:31:39;17.83;;;7.30;;
42700;SDS011;28316;49.504;8.526;2023-02-23T09:34:04;18.42;;;7.07;;
42700;SDS011;28316;49.504;8.526;2023-02-23T09:36:33;13.98;;;6.50;;
42700;SDS011;28316;49.504;8.526;2023-02-23T09:38:59;15.85;;;7.32;;
42700;SDS011;28316;49.504;8.526;2023-02-23T09:50:20;11.23;;;5.00;;
42700;SDS011;28316;49.504;8.526;2023-02-23T09:53:51;9.43;;;4.97;;
42700;SDS011;28316;49.504;8.526;2023-02-23T09:55:52;15.25;;;6.22;;
42700;SDS011;28316;49.504;8.526;2023-02-23T09:58:29;12.02;;;5.03;;
42700;SDS011;28316;49.504;8.526;2023-02-23T10:06:52;15.55;;;6.45;;
42700;SDS011;28316;49.504;8.526;2023-02-23T10:12:47;8.82;;;4.70;;
42700;SDS011;28316;49.504;8.526;2023-02-23T10:18:34;12.00;;;5.60;;
42700;SDS011;28316;49.504;8.526;2023-02-23T10:21:30;16.80;;;6.65;;
42700;SDS011;28316;49.504;8.526;2023-02-23T10:26:46;14.45;;;6.28;;
42700;SDS011;28316;49.504;8.526;2023-02-23T10:29:35;16.13;;;5.78;;
42700;SDS011;28316;49.504;8.526;2023-02-23T10:32:37;12.75;;;5.72;;
42700;SDS011;28316;49.504;8.526;2023-02-23T10:35:15;15.43;;;5.78;;
42700;SDS011;28316;49.504;8.526;2023-02-23T10:37:45;18.10;;;5.97;;
42700;SDS011;28316;49.504;8.526;2023-02-23T10:40:13;13.35;;;5.53;;
42700;SDS011;28316;49.504;8.526;2023-02-23T10:42:41;20.52;;;5.78;;
42700;SDS011;28316;49.504;8.526;2023-02-23T10:45:17;16.50;;;7.05;;
42700;SDS011;28316;49.504;8.526;2023-02-23T10:47:54;13.02;;;5.47;;
42700;SDS011;28316;49.504;8.526;2023-02-23T10:50:28;12.30;;;5.55;;
42700;SDS011;28316;49.504;8.526;2023-02-23T10:52:57;11.75;;;4.82;;
42700;SDS011;28316;49.504;8.526;2023-02-23T10:55:42;9.63;;;4.65;;
42700;SDS011;28316;49.504;8.526;2023-02-23T10:58:10;10.68;;;4.65;;
42700;SDS011;28316;49.504;8.526;2023-02-23T11:00:53;12.73;;;5.50;;
42700;SDS011;28316;49.504;8.526;2023-02-23T11:03:32;11.98;;;4.95;;
42700;SDS011;28316;49.504;8.526;2023-02-23T11:06:05;16.80;;;6.40;;
42700;SDS011;28316;49.504;8.526;2023-02-23T11:08:50;12.93;;;5.45;;
42700;SDS011;28316;49.504;8.526;2023-02-23T11:13:50;16.88;;;6.30;;
42700;SDS011;28316;49.504;8.526;2023-02-23T11:16:36;14.25;;;5.60;;
42700;SDS011;28316;49.504;8.526;2023-02-23T11:19:03;14.40;;;4.95;;
42700;SDS011;28316;49.504;8.526;2023-02-23T11:21:38;15.18;;;5.82;;
42700;SDS011;28316;49.504;8.526;2023-02-23T11:27:00;12.32;;;5.35;;
42700;SDS011;28316;49.504;8.526;2023-02-23T11:29:37;10.73;;;4.50;;
42700;SDS011;28316;49.504;8.526;2023-02-23T11:32:08;13.05;;;4.25;;
42700;SDS011;28316;49.504;8.526;2023-02-23T11:34:41;15.30;;;4.20;;
42700;SDS011;28316;49.504;8.526;2023-02-23T11:37:20;9.55;;;3.80;;
42700;SDS011;28316;49.504;8.526;2023-02-23T11:39:53;8.70;;;3.92;;
42700;SDS011;28316;49.504;8.526;2023-02-23T11:42:23;15.25;;;4.55;;
42700;SDS011;28316;49.504;8.526;2023-02-23T11:47:43;8.73;;;3.90;;
42700;SDS011;28316;49.504;8.526;2023-02-23T11:56:02;14.18;;;4.22;;
42700;SDS011;28316;49.504;8.526;2023-02-23T11:58:43;11.13;;;3.85;;
42700;SDS011;28316;49.504;8.526;2023-02-23T12:01:14;11.15;;;3.90;;
42700;SDS011;28316;49.504;8.526;2023-02-23T12:03:55;15.45;;;4.88;;
42700;SDS011;28316;49.504;8.526;2023-02-23T12:06:55;10.52;;;4.38;;
42700;SDS011;28316;49.504;8.526;2023-02-23T12:11:50;9.40;;;3.95;;
42700;SDS011;28316;49.504;8.526;2023-02-23T12:14:40;6.95;;;3.03;;
42700;SDS011;28316;49.504;8.526;2023-02-23T12:17:32;20.35;;;3.95;;
42700;SDS011;28316;49.504;8.526;2023-02-23T12:23:00;11.70;;;4.75;;
42700;SDS011;28316;49.504;8.526;2023-02-23T12:25:35;7.13;;;3.50;;
42700;SDS011;28316;49.504;8.526;2023-02-23T12:34:56;7.78;;;3.95;;
42700;SDS011;28316;49.504;8.526;2023-02-23T12:37:24;13.10;;;5.28;;
42700;SDS011;28316;49.504;8.526;2023-02-23T12:43:01;5.47;;;2.05;;
42700;SDS011;28316;49.504;8.526;2023-02-23T12:45:45;8.73;;;2.88;;
42700;SDS011;28316;49.504;8.526;2023-02-23T12:51:49;9.10;;;2.65;;
42700;SDS011;28316;49.504;8.526;2023-02-23T12:54:21;6.38;;;2.63;;
42700;SDS011;28316;49.504;8.526;2023-02-23T13:02:28;9.55;;;2.38;;
42700;SDS011;28316;49.504;8.526;2023-02-23T13:05:23;9.70;;;3.67;;
42700;SDS011;28316;49.504;8.526;2023-02-23T13:08:03;4.97;;;2.70;;
42700;SDS011;28316;49.504;8.526;2023-02-23T13:14:25;16.35;;;3.60;;
42700;SDS011;28316;49.504;8.526;2023-02-23T13:28:50;6.10;;;2.55;;
42700;SDS011;28316;49.504;8.526;2023-02-23T13:31:34;6.45;;;2.65;;
42700;SDS011;28316;49.504;8.526;2023-02-23T13:34:04;5.50;;;2.80;;
42700;SDS011;28316;49.504;8.526;2023-02-23T13:36:36;11.82;;;3.67;;
42700;SDS011;28316;49.504;8.526;2023-02-23T13:45:20;9.45;;;3.00;;
42700;SDS011;28316;49.504;8.526;2023-02-23T13:51:08;8.35;;;2.92;;
42700;SDS011;28316;49.504;8.526;2023-02-23T13:56:17;4.80;;;1.80;;
42700;SDS011;28316;49.504;8.526;2023-02-23T13:58:50;7.10;;;2.95;;
42700;SDS011;28316;49.504;8.526;2023-02-23T14:01:30;10.77;;;3.25;;
42700;SDS011;28316;49.504;8.526;2023-02-23T14:04:02;6.95;;;2.97;;
42700;SDS011;28316;49.504;8.526;2023-02-23T14:06:36;6.07;;;3.10;;
42700;SDS011;28316;49.504;8.526;2023-02-23T14:09:06;8.98;;;2.95;;
42700;SDS011;28316;49.504;8.526;2023-02-23T14:11:51;5.22;;;2.78;;
42700;SDS011;28316;49.504;8.526;2023-02-23T14:14:42;6.63;;;2.53;;
42700;SDS011;28316;49.504;8.526;2023-02-23T14:17:37;15.57;;;2.92;;
42700;SDS011;28316;49.504;8.526;2023-02-23T14:41:25;14.98;;;2.65;;
42700;SDS011;28316;49.504;8.526;2023-02-23T14:44:15;5.68;;;2.05;;
42700;SDS011;28316;49.504;8.526;2023-02-23T14:47:07;5.67;;;2.47;;
42700;SDS011;28316;49.504;8.526;2023-02-23T14:49:40;5.60;;;2.30;;
42700;SDS011;28316;49.504;8.526;2023-02-23T14:52:23;10.45;;;2.92;;
42700;SDS011;28316;49.504;8.526;2023-02-23T14:57:38;4.57;;;2.47;;
42700;SDS011;28316;49.504;8.526;2023-02-23T15:00:28;6.57;;;2.30;;
42700;SDS011;28316;49.504;8.526;2023-02-23T15:03:09;5.03;;;2.55;;
42700;SDS011;28316;49.504;8.526;2023-02-23T15:08:41;4.20;;;1.75;;
42700;SDS011;28316;49.504;8.526;2023-02-23T15:11:10;4.53;;;2.05;;
42700;SDS011;28316;49.504;8.526;2023-02-23T15:13:41;6.70;;;2.13;;
42700;SDS011;28316;49.504;8.526;2023-02-23T15:16:20;4.32;;;2.35;;
42700;SDS011;28316;49.504;8.526;2023-02-23T15:18:53;10.38;;;2.35;;
42700;SDS011;28316;49.504;8.526;2023-02-23T15:21:20;4.72;;;2.08;;
42700;SDS011;28316;49.504;8.526;2023-02-23T15:23:48;10.73;;;2.30;;
42700;SDS011;28316;49.504;8.526;2023-02-23T15:26:40;5.63;;;2.35;;
42700;SDS011;28316;49.504;8.526;2023-02-23T15:31:40;3.55;;;1.50;;
42700;SDS011;28316;49.504;8.526;2023-02-23T15:34:16;6.80;;;1.95;;
42700;SDS011;28316;49.504;8.526;2023-02-23T15:36:55;6.20;;;2.35;;
42700;SDS011;28316;49.504;8.526;2023-02-23T15:39:39;4.68;;;2.20;;
42700;SDS011;28316;49.504;8.526;2023-02-23T15:42:17;4.40;;;2.47;;
42700;SDS011;28316;49.504;8.526;2023-02-23T15:45:01;4.93;;;2.10;;
42700;SDS011;28316;49.504;8.526;2023-02-23T15:47:44;4.85;;;2.13;;
42700;SDS011;28316;49.504;8.526;2023-02-23T15:50:15;6.45;;;1.80;;
42700;SDS011;28316;49.504;8.526;2023-02-23T15:52:49;5.55;;;2.70;;
42700;SDS011;28316;49.504;8.526;2023-02-23T15:55:37;6.03;;;2.20;;
42700;SDS011;28316;49.504;8.526;2023-02-23T15:58:26;7.18;;;1.90;;
42700;SDS011;28316;49.504;8.526;2023-02-23T16:00:56;11.35;;;2.35;;
42700;SDS011;28316;49.504;8.526;2023-02-23T16:03:39;10.25;;;4.13;;
42700;SDS011;28316;49.504;8.526;2023-02-23T16:06:21;8.13;;;3.40;;
42700;SDS011;28316;49.504;8.526;2023-02-23T16:12:30;5.78;;;2.88;;
42700;SDS011;28316;49.504;8.526;2023-02-23T16:14:45;4.57;;;2.08;;
42700;SDS011;28316;49.504;8.526;2023-02-23T16:17:34;5.40;;;2.25;;
42700;SDS011;28316;49.504;8.526;2023-02-23T16:23:05;3.13;;;1.50;;
42700;SDS011;28316;49.504;8.526;2023-02-23T16:25:46;8.45;;;2.40;;
42700;SDS011;28316;49.504;8.526;2023-02-23T16:28:29;4.65;;;2.70;;
42700;SDS011;28316;49.504;8.526;2023-02-23T16:30:59;5.90;;;2.40;;
42700;SDS011;28316;49.504;8.526;2023-02-23T16:33:29;7.60;;;2.67;;
42700;SDS011;28316;49.504;8.526;2023-02-23T16:36:17;12.90;;;2.42;;
42700;SDS011;28316;49.504;8.526;2023-02-23T16:38:57;4.65;;;1.95;;
42700;SDS011;28316;49.504;8.526;2023-02-23T16:41:29;9.13;;;2.10;;
42700;SDS011;28316;49.504;8.526;2023-02-23T16:43:58;4.85;;;2.03;;
42700;SDS011;28316;49.504;8.526;2023-02-23T16:46:27;4.63;;;2.30;;
42700;SDS011;28316;49.504;8.526;2023-02-23T16:48:57;8.98;;;3.03;;
42700;SDS011;28316;49.504;8.526;2023-02-23T16:51:34;4.32;;;2.15;;
42700;SDS011;28316;49.504;8.526;2023-02-23T16:54:00;5.53;;;2.08;;
42700;SDS011;28316;49.504;8.526;2023-02-23T16:56:29;6.97;;;1.77;;
42700;SDS011;28316;49.504;8.526;2023-02-23T16:58:57;5.45;;;2.30;;
42700;SDS011;28316;49.504;8.526;2023-02-23T17:01:27;6.35;;;2.42;;
42700;SDS011;28316;49.504;8.526;2023-02-23T17:03:52;3.53;;;1.70;;
42700;SDS011;28316;49.504;8.526;2023-02-23T17:06:19;4.82;;;2.67;;
42700;SDS011;28316;49.504;8.526;2023-02-23T17:08:46;6.50;;;2.22;;
42700;SDS011;28316;49.504;8.526;2023-02-23T17:11:12;7.25;;;2.75;;
42700;SDS011;28316;49.504;8.526;2023-02-23T17:13:37;4.43;;;2.00;;
42700;SDS011;28316;49.504;8.526;2023-02-23T17:16:04;7.15;;;2.83;;
42700;SDS011;28316;49.504;8.526;2023-02-23T17:18:35;9.57;;;4.28;;
42700;SDS011;28316;49.504;8.526;2023-02-23T17:21:06;8.07;;;3.15;;
42700;SDS011;28316;49.504;8.526;2023-02-23T17:23:35;6.53;;;2.63;;
42700;SDS011;28316;49.504;8.526;2023-02-23T17:26:12;10.40;;;3.05;;
42700;SDS011;28316;49.504;8.526;2023-02-23T17:28:38;5.30;;;1.92;;
42700;SDS011;28316;49.504;8.526;2023-02-23T17:31:05;5.80;;;2.28;;
42700;SDS011;28316;49.504;8.526;2023-02-23T17:33:31;4.93;;;1.88;;
42700;SDS011;28316;49.504;8.526;2023-02-23T17:36:00;4.05;;;2.20;;
42700;SDS011;28316;49.504;8.526;2023-02-23T17:38:28;4.90;;;2.00;;
42700;SDS011;28316;49.504;8.526;2023-02-23T17:41:00;6.15;;;1.92;;
42700;SDS011;28316;49.504;8.526;2023-02-23T17:43:35;5.00;;;2.63;;
42700;SDS011;28316;49.504;8.526;2023-02-23T17:46:01;5.25;;;3.13;;
42700;SDS011;28316;49.504;8.526;2023-02-23T17:48:28;7.28;;;3.25;;
42700;SDS011;28316;49.504;8.526;2023-02-23T17:51:03;4.03;;;2.05;;